Latest Coastal Weather Observations for Wilsons Promontory

IDV60701

Issued at 11:11 am EDT Tuesday 23 December 2014 (issued every 10 minutes, with the page automatically refreshed every 10 minutes)

About coastal observations | Map of coastal stations | Coastal observations for VIC | Marine services | Other Formats
Station Details ID: 085096 Name: WILSONS PROMONTORY LIGHTHOUSE Lat: -39.13 Lon: 146.42 Height: 95.0 m
Data from the previous 72 hours. | See also: Recent months at Wilsons Promontory
Date/Time
EDT
Temp

°C
Wind Pressure Rain
since 9am
mm
Weather Cloud Vis
km
Sea
Height
m
Swell
Dir
 
Speed
knots
Gust
knots
hPa Trend Height
m
Period
s
Dir
23/11:00am 21.5 W 17 28 1006.3 - 0.0 - - - - - - -
23/10:43am 21.9 W 15 28 1006.5 - 0.0 - - - - - - -
23/10:30am 21.5 W 7 15 1006.7 - 0.0 - - - - - - -
23/10:00am 20.2 N 5 8 1006.7 - 0.0 - - - - - - -
23/09:30am 19.2 NE 8 9 1006.8 - 0.0 - - - - - - -
23/09:00am 18.8 NE 9 10 1006.4 - 4.8 - - - - - - -
23/08:30am 18.6 ENE 6 7 1006.8 - 4.8 - - - - - - -
23/08:00am 19.3 NE 4 8 1007.0 - 4.2 - - - - - - -
23/07:30am 19.7 NW 6 11 1007.3 - 3.4 - - - - - - -
23/07:00am 19.8 NW 12 18 1007.1 - 2.6 - - - - - - -
23/06:30am 19.6 CALM 0 0 1006.6 - 0.8 - - - - - - -
23/06:00am 18.8 WSW 9 13 1006.2 - 0.8 - - - - - - -
23/05:30am 17.7 NNE 13 15 1006.2 - 0.8 - - - - - - -
23/05:00am 18.0 NNE 9 11 1006.0 - 0.6 - - - - - - -
23/04:30am 18.0 N 11 19 1006.0 - 0.6 - - - - - - -
23/04:00am 17.4 NNE 12 15 1006.2 - 0.6 - - - - - - -
23/03:30am 17.5 NNE 14 16 1006.3 - 0.4 - - - - - - -
23/03:00am 17.5 NNE 14 17 1006.3 - 0.2 - - - - - - -
23/02:30am 17.7 SW 7 15 1006.3 - 0.0 - - - - - - -
23/02:00am 18.1 W 7 10 1006.5 - 0.0 - - - - - - -
23/01:30am 18.0 N 2 5 1007.0 - 0.0 - - - - - - -
23/01:00am 18.1 NE 8 13 1007.2 - 0.0 - - - - - - -
23/12:30am 20.1 WNW 16 23 1007.4 - 0.0 - - - - - - -
23/12:03am 18.4 WNW 17 27 1006.9 - 0.0 - - - - - - -
23/12:00am 18.3 WNW 15 23 1006.5 - 0.0 - - - - - - -
 
Date/Time
EDT
Temp

°C
Wind Pressure Rain
since 9am
mm
Weather Cloud Vis
km
Sea
Height
m
Swell
Dir
 
Speed
knots
Gust
knots
hPa Trend Height
m
Period
s
Dir
22/11:30pm 18.6 N 6 12 1007.4 - 0.0 - - - - - - -
22/11:00pm 18.5 NNE 15 21 1007.3 - 0.0 - - - - - - -
22/10:30pm 18.3 NNE 18 23 1007.1 - 0.0 - - - - - - -
22/10:00pm 18.1 NNE 19 25 1007.2 - 0.0 - - - - - - -
22/09:30pm 18.2 NNE 19 24 1007.6 - 0.0 - - - - - - -
22/09:00pm 18.2 NNE 19 26 1008.0 - 0.0 - - - - - - -
22/08:30pm 18.1 NNE 17 23 1008.6 - 0.0 - - - - - - -
22/08:00pm 18.0 NNE 16 23 1008.9 - 0.0 - - - - - - -
22/07:30pm 17.9 NNE 16 21 1009.3 - 0.0 - - - - - - -
22/07:00pm 17.6 NE 17 22 1009.4 - 0.0 - - - - - - -
22/06:30pm 17.7 NNE 18 21 1009.8 - 0.0 - - - - - - -
22/06:00pm 17.7 ENE 18 21 1009.9 - 0.0 - - - - - - -
22/05:30pm 17.8 ENE 16 19 1010.2 - 0.0 - - - - - - -
22/05:00pm 18.3 ENE 12 14 1010.7 - 0.0 - - - - - - -
22/04:30pm 18.6 ENE 12 15 1011.0 - 0.0 - - - - - - -
22/04:00pm 19.3 NE 12 15 1011.3 - 0.0 - - - - - - -
22/03:30pm 19.5 NE 14 18 1011.7 - 0.0 - - - - - - -
22/03:00pm 19.2 NE 16 22 1011.9 - 0.0 - - - - - - -
22/02:30pm 19.4 NE 18 22 1012.2 - 0.0 - - - - - - -
22/02:00pm 19.7 NNE 17 22 1012.5 - 0.0 - - - - - - -
22/01:30pm 19.2 NNE 18 22 1012.8 - 0.0 - - - - - - -
22/01:00pm 18.8 NE 19 24 1013.1 - 0.0 - - - - - - -
22/12:30pm 19.3 NE 17 21 1013.5 - 0.0 - - - - - - -
22/12:00pm 18.1 NE 17 21 1013.5 - 0.0 - - - - - - -
22/11:30am 18.4 NE 13 16 1014.0 - 0.0 - - - - - - -
22/11:00am 18.2 NE 11 13 1014.2 - 0.0 - - - - - - -
22/10:30am 17.9 NE 11 14 1014.1 - 0.0 - - - - - - -
22/10:00am 17.9 NE 10 12 1014.1 - 0.0 - - - - - - -
22/09:30am 17.0 NE 10 12 1014.3 - 0.0 - - - - - - -
22/09:00am 16.6 ENE 11 13 1014.0 - 0.0 - - - - - - -
22/08:30am 16.3 ENE 10 11 1014.3 - 0.0 - - - - - - -
22/08:00am 16.5 E 8 9 1014.0 - 0.0 - - - - - - -
22/07:30am 16.5 ESE 6 8 1013.9 - 0.0 - - - - - - -
22/07:00am 16.1 E 7 9 1013.7 - 0.0 - - - - - - -
22/06:30am 16.2 ESE 5 7 1013.4 - 0.0 - - - - - - -
22/06:00am 15.8 SSE 4 5 1013.2 - 0.0 - - - - - - -
22/05:30am 15.8 SE 2 4 1013.2 - 0.0 - - - - - - -
22/05:00am 16.0 ESE 4 5 1012.9 - 0.0 - - - - - - -
22/04:30am 16.0 ENE 3 5 1012.8 - 0.0 - - - - - - -
22/04:00am 16.0 ENE 5 7 1012.8 - 0.0 - - - - - - -
22/03:30am 16.2 E 4 6 1013.0 - 0.0 - - - - - - -
22/03:00am 16.2 E 4 6 1013.1 - 0.0 - - - - - - -
22/02:30am 16.3 SE 5 7 1013.5 - 0.0 - - - - - - -
22/02:00am 16.4 SSE 5 7 1013.6 - 0.0 - - - - - - -
22/01:30am 16.4 S 4 5 1013.7 - 0.0 - - - - - - -
22/01:00am 16.6 SW 7 9 1014.0 - 0.0 - - - - - - -
22/12:30am 16.6 SW 6 11 1014.1 - 0.0 - - - - - - -
22/12:00am 17.2 SW 7 11 1013.9 - 0.0 - - - - - - -
 
Date/Time
EDT
Temp

°C
Wind Pressure Rain
since 9am
mm
Weather Cloud Vis
km
Sea
Height
m
Swell
Dir
 
Speed
knots
Gust
knots
hPa Trend Height
m
Period
s
Dir
21/11:30pm 17.8 SW 8 12 1014.0 - 0.0 - - - - - - -
21/11:00pm 20.1 WSW 10 12 1013.8 - 0.0 - - - - - - -
21/10:30pm 20.5 W 9 10 1013.5 - 0.0 - - - - - - -
21/10:00pm 19.6 SW 7 10 1013.7 - 0.0 - - - - - - -
21/09:30pm 19.3 N 6 9 1013.3 - 0.0 - - - - - - -
21/09:00pm 18.1 NNE 9 10 1012.9 - 0.0 - - - - - - -
21/08:30pm 17.7 NNE 10 11 1012.8 - 0.0 - - - - - - -
21/08:00pm 18.0 NNE 12 14 1012.7 - 0.0 - - - - - - -
21/07:30pm 18.2 NNE 12 13 1012.5 - 0.0 - - - - - - -
21/07:00pm 18.0 NNE 16 17 1012.1 - 0.0 - - - - - - -
21/06:30pm 17.9 NNE 17 19 1012.1 - 0.0 - - - - - - -
21/06:00pm 17.9 NNE 19 21 1012.0 - 0.0 - - - - - - -
21/05:30pm 17.9 NE 19 21 1012.3 - 0.0 - - - - - - -
21/05:00pm 18.3 NE 18 21 1012.4 - 0.0 - - - - - - -
21/04:30pm 18.5 NE 17 19 1012.9 - 0.0 - - - - - - -
21/04:00pm 18.5 NE 15 17 1013.5 - 0.0 - - - - - - -
21/03:30pm 18.6 NE 16 19 1013.6 - 0.0 - - - - - - -
21/03:00pm 18.5 NE 17 20 1013.7 - 0.0 - - - - - - -
21/02:30pm 17.9 NE 17 19 1014.1 - 0.0 - - - - - - -
21/02:00pm 18.0 NE 16 19 1014.3 - 0.0 - - - - - - -
21/01:30pm 18.7 NE 15 17 1014.7 - 0.0 - - - - - - -
21/01:00pm 18.6 NE 14 16 1015.1 - 0.0 - - - - - - -
21/12:30pm 18.4 NE 15 17 1015.0 - 0.0 - - - - - - -
21/12:00pm 18.5 NE 15 17 1014.9 - 0.0 - - - - - - -
21/11:30am 18.7 NE 15 19 1014.8 - 0.0 - - - - - - -
21/11:00am 19.0 NE 16 20 1014.9 - 0.0 - - - - - - -
21/10:30am 18.5 NNE 17 20 1015.0 - 0.0 - - - - - - -
21/10:00am 18.2 NNE 16 20 1015.1 - 0.0 - - - - - - -
21/09:30am 18.6 NNE 15 19 1015.3 - 0.0 - - - - - - -
21/09:00am 18.1 NNE 15 21 1014.9 - 0.0 - - - - - - -
21/08:30am 17.7 NE 14 17 1015.1 - 0.0 - - - - - - -
21/08:00am 17.0 NE 12 14 1015.2 - 0.0 - - - - - - -
21/07:30am 16.4 NE 8 10 1015.4 - 0.0 - - - - - - -
21/07:00am 15.4 NE 6 8 1015.9 - 0.0 - - - - - - -
21/06:30am 15.3 NE 4 6 1015.7 - 0.0 - - - - - - -
21/06:00am 14.5 NNE 5 6 1015.2 - 0.0 - - - - - - -
21/05:30am 13.9 NE 4 5 1015.0 - 0.0 - - - - - - -
21/05:00am 14.0 NNE 5 5 1014.7 - 0.0 - - - - - - -
21/04:30am 14.0 NNE 4 5 1014.4 - 0.0 - - - - - - -
21/04:00am 14.3 WNW 8 11 1014.4 - 0.0 - - - - - - -
21/03:30am 14.9 NW 3 7 1014.9 - 0.0 - - - - - - -
21/03:00am 14.8 NNW 5 8 1015.0 - 0.0 - - - - - - -
21/02:30am 14.7 NW 6 9 1015.5 - 0.0 - - - - - - -
21/02:00am 14.6 NW 8 10 1015.8 - 0.0 - - - - - - -
21/01:30am 14.6 WNW 7 10 1016.3 - 0.0 - - - - - - -
21/01:00am 14.6 WNW 9 12 1016.4 - 0.0 - - - - - - -
21/12:30am 14.6 WNW 10 13 1016.4 - 0.0 - - - - - - -
21/12:00am 14.6 WNW 9 13 1016.6 - 0.0 - - - - - - -
 
Date/Time
EDT
Temp

°C
Wind Pressure Rain
since 9am
mm
Weather Cloud Vis
km
Sea
Height
m
Swell
Dir
 
Speed
knots
Gust
knots
hPa Trend Height
m
Period
s
Dir
20/11:30pm 14.7 W 8 11 1016.9 - 0.0 - - - - - - -
20/11:00pm 14.9 W 7 12 1017.1 - 0.0 - - - - - - -
20/10:30pm 15.1 W 10 14 1017.3 - 0.0 - - - - - - -
20/10:00pm 15.3 W 10 14 1017.4 - 0.0 - - - - - - -
20/09:30pm 15.2 W 10 15 1017.2 - 0.0 - - - - - - -
20/09:00pm 15.3 W 10 15 1016.7 - 0.0 - - - - - - -
20/08:30pm 15.5 W 12 17 1016.8 - 0.0 - - - - - - -
20/08:00pm 16.0 W 15 18 1016.5 - 0.0 - - - - - - -
20/07:30pm 16.4 W 16 21 1016.3 - 0.0 - - - - - - -
20/07:00pm 16.4 W 18 24 1015.7 - 0.0 - - - - - - -
20/06:30pm 15.7 W 19 26 1015.4 - 0.0 - - - - - - -
20/06:00pm 16.9 W 22 28 1015.3 - 0.0 - - - - - - -
20/05:30pm 17.4 W 21 27 1015.5 - 0.0 - - - - - - -
20/05:16pm 17.0 W 19 30 1015.6 - 0.0 - - - - - - -
20/05:00pm 17.0 W 21 29 1015.8 - 0.0 - - - - - - -
20/04:30pm 17.4 W 16 28 1016.0 - 0.0 - - - - - - -
20/04:00pm 17.2 W 19 29 1016.1 - 0.0 - - - - - - -
20/03:34pm 17.2 W 18 29 1016.5 - 0.0 - - - - - - -
20/03:30pm 17.4 W 18 25 1016.5 - 0.0 - - - - - - -
20/03:00pm 18.6 W 21 31 1016.4 - 0.0 - - - - - - -
20/02:33pm 18.0 W 20 30 1016.6 - 0.0 - - - - - - -
20/02:30pm 17.6 W 21 30 1016.6 - 0.0 - - - - - - -
20/02:00pm 17.0 W 19 30 1016.7 - 0.0 - - - - - - -
20/01:30pm 17.9 W 17 27 1016.8 - 0.0 - - - - - - -
20/01:26pm 18.1 W 21 31 1016.8 - 0.0 - - - - - - -
20/01:00pm 17.7 W 23 31 1016.7 - 0.0 - - - - - - -
20/12:40pm 16.9 W 20 30 1016.9 - 0.0 - - - - - - -
20/12:30pm 16.7 W 22 31 1016.9 - 0.0 - - - - - - -
20/12:00pm 17.4 W 20 31 1016.8 - 0.0 - - - - - - -
20/11:45am 18.4 W 18 28 1017.1 - 0.0 - - - - - - -
20/11:30am 17.4 W 24 30 1017.0 - 0.0 - - - - - - -
20/11:13am 18.0 W 21 31 1017.2 - 0.0 - - - - - - -

Other Formats:

Comma delimited format used in spreadsheet applications
http://www.bom.gov.au/fwo/IDV60701/IDV60701.94893.axf

JavaScript Object Notation format (JSON) in row-major order
http://www.bom.gov.au/fwo/IDV60701/IDV60701.94893.json